Aue, Germany

8:38 AM CET on February 09, 2016 (GMT +0100)
Aue-Eichert | | Change Station
CLOSE
Current Station
Personal Weather Station
Location: Aue, SACHSEN
Elevation: 1594 ft
Nearby Weather Stations

Elev 1594 ft 50.57 °N, 12.70 °E | Updated 1 minute ago

Mostly Cloudy
Mostly Cloudy
38.3 °F
Feels Like 35 °F
N
4.5
Wind Variable Wind from SE
Gusts 6.9 mph

Today
High -- | Low -- °F
--% Chance of Precip.
Yesterday
High -- | Low -- °F
Precip. -- in
Pressure 29.59 in
Visibility 6.2 miles
Clouds Scattered Clouds 2000 ft
Mostly Cloudy 3400 ft
Windchill 35 °F
Dew Point 30 °F
Humidity 73%
Rainfall 0.00 in
Snow Depth Not available.
7:32 AM 5:14 PM
New Moon, 1% visible
METAR LKKV 090730Z 23011KT 200V260 9999 SCT020 BKN034 04/01 Q1002
Pressure 29.59 in
Visibility 6.2 miles
Clouds Scattered Clouds 2000 ft
Mostly Cloudy 3400 ft
Windchill 35 °F
Dew Point 30 °F
Humidity 73%
Rainfall 0.00 in
Snow Depth Not available.
7:32 AM 5:14 PM
New Moon, 1% visible
METAR LKKV 090730Z 23011KT 200V260 9999 SCT020 BKN034 04/01 Q1002

10-Day Weather Forecast

Almanac

Astronomy

Feb. 09, 2016 Rise Set
Actual Time
Civil Twilight
Nautical Twilight
Astronomical Twilight
Moon
Length of Visible Light
Length of Day
Tomorrow will be .
, % of the Moon is Illuminated

Today's Extremes

Country Highs Country Lows

Community

WunderPhotos

Upload Photos

1,891,571 photos uploaded!

WunderBlog® & News

Nearby

Air Quality

  Air Quality AQ Index Pollutant
Not available.

Snow Depth

Station Depth Elevation

Earthquake Activity

City Distance Mag. Time & Date
Minimum magnitude displayed is 2.5.

Coastal Water Temperatures

Place Temperature

Stations

Nearby Weather Stations

Station Location Temp. Windchill Dew Point Humidity Wind Precip. Elev Updated Type